sensor_id;sensor_type;location;lat;lon;timestamp;P1;durP1;ratioP1;P2;durP2;ratioP2
57810;SDS011;43640;47.550;7.590;2022-12-07T00:00:14;12.25;;;9.25;;
57810;SDS011;43640;47.550;7.590;2022-12-07T00:02:15;13.40;;;9.52;;
57810;SDS011;43640;47.550;7.590;2022-12-07T00:04:17;12.20;;;8.73;;
57810;SDS011;43640;47.550;7.590;2022-12-07T00:06:19;14.68;;;9.25;;
57810;SDS011;43640;47.550;7.590;2022-12-07T00:08:20;12.82;;;8.95;;
57810;SDS011;43640;47.550;7.590;2022-12-07T00:10:22;12.00;;;9.25;;
57810;SDS011;43640;47.550;7.590;2022-12-07T00:12:23;13.38;;;9.05;;
57810;SDS011;43640;47.550;7.590;2022-12-07T00:14:24;13.88;;;9.27;;
57810;SDS011;43640;47.550;7.590;2022-12-07T00:16:27;13.23;;;9.85;;
57810;SDS011;43640;47.550;7.590;2022-12-07T00:18:29;16.80;;;10.68;;
57810;SDS011;43640;47.550;7.590;2022-12-07T00:20:30;15.18;;;10.07;;
57810;SDS011;43640;47.550;7.590;2022-12-07T00:22:32;14.05;;;10.02;;
57810;SDS011;43640;47.550;7.590;2022-12-07T00:24:33;14.48;;;9.90;;
57810;SDS011;43640;47.550;7.590;2022-12-07T00:26:35;14.82;;;10.15;;
57810;SDS011;43640;47.550;7.590;2022-12-07T00:28:37;14.25;;;9.15;;
57810;SDS011;43640;47.550;7.590;2022-12-07T00:30:38;16.05;;;10.05;;
57810;SDS011;43640;47.550;7.590;2022-12-07T00:32:40;15.63;;;10.05;;
57810;SDS011;43640;47.550;7.590;2022-12-07T00:34:41;13.48;;;9.40;;
57810;SDS011;43640;47.550;7.590;2022-12-07T00:36:43;14.98;;;9.73;;
57810;SDS011;43640;47.550;7.590;2022-12-07T00:38:44;13.20;;;9.77;;
57810;SDS011;43640;47.550;7.590;2022-12-07T00:40:53;15.32;;;10.20;;
57810;SDS011;43640;47.550;7.590;2022-12-07T00:42:54;15.00;;;10.07;;
57810;SDS011;43640;47.550;7.590;2022-12-07T00:44:55;13.35;;;9.60;;
57810;SDS011;43640;47.550;7.590;2022-12-07T00:46:57;13.07;;;9.90;;
57810;SDS011;43640;47.550;7.590;2022-12-07T00:48:58;16.98;;;10.88;;
57810;SDS011;43640;47.550;7.590;2022-12-07T00:51:00;13.32;;;9.80;;
57810;SDS011;43640;47.550;7.590;2022-12-07T00:53:01;14.57;;;9.85;;
57810;SDS011;43640;47.550;7.590;2022-12-07T00:55:02;13.98;;;10.20;;
57810;SDS011;43640;47.550;7.590;2022-12-07T00:57:04;15.00;;;10.30;;
57810;SDS011;43640;47.550;7.590;2022-12-07T00:59:05;15.23;;;10.15;;
57810;SDS011;43640;47.550;7.590;2022-12-07T01:01:07;14.20;;;10.30;;
57810;SDS011;43640;47.550;7.590;2022-12-07T01:03:09;15.02;;;10.52;;
57810;SDS011;43640;47.550;7.590;2022-12-07T01:05:11;16.52;;;10.48;;
57810;SDS011;43640;47.550;7.590;2022-12-07T01:07:12;13.38;;;9.98;;
57810;SDS011;43640;47.550;7.590;2022-12-07T01:09:14;15.55;;;10.65;;
57810;SDS011;43640;47.550;7.590;2022-12-07T01:11:16;13.77;;;10.30;;
57810;SDS011;43640;47.550;7.590;2022-12-07T01:13:18;15.75;;;10.35;;
57810;SDS011;43640;47.550;7.590;2022-12-07T01:15:19;16.13;;;10.07;;
57810;SDS011;43640;47.550;7.590;2022-12-07T01:17:20;16.77;;;11.07;;
57810;SDS011;43640;47.550;7.590;2022-12-07T01:19:22;15.07;;;10.88;;
57810;SDS011;43640;47.550;7.590;2022-12-07T01:21:27;14.65;;;10.35;;
57810;SDS011;43640;47.550;7.590;2022-12-07T01:23:29;16.27;;;10.68;;
57810;SDS011;43640;47.550;7.590;2022-12-07T01:25:30;16.42;;;10.77;;
57810;SDS011;43640;47.550;7.590;2022-12-07T01:27:32;14.98;;;10.48;;
57810;SDS011;43640;47.550;7.590;2022-12-07T01:29:34;15.32;;;11.20;;
57810;SDS011;43640;47.550;7.590;2022-12-07T01:31:35;15.27;;;10.82;;
57810;SDS011;43640;47.550;7.590;2022-12-07T01:33:37;16.42;;;11.48;;
57810;SDS011;43640;47.550;7.590;2022-12-07T01:35:38;16.42;;;10.57;;
57810;SDS011;43640;47.550;7.590;2022-12-07T01:37:40;16.27;;;11.13;;
57810;SDS011;43640;47.550;7.590;2022-12-07T01:39:41;15.40;;;11.50;;
57810;SDS011;43640;47.550;7.590;2022-12-07T01:41:43;16.67;;;11.10;;
57810;SDS011;43640;47.550;7.590;2022-12-07T01:46:04;15.80;;;11.40;;
57810;SDS011;43640;47.550;7.590;2022-12-07T01:48:06;16.15;;;11.23;;
57810;SDS011;43640;47.550;7.590;2022-12-07T01:50:10;16.30;;;11.55;;
57810;SDS011;43640;47.550;7.590;2022-12-07T01:52:18;16.40;;;10.88;;
57810;SDS011;43640;47.550;7.590;2022-12-07T01:54:21;15.20;;;10.80;;
57810;SDS011;43640;47.550;7.590;2022-12-07T01:56:23;17.70;;;10.77;;
57810;SDS011;43640;47.550;7.590;2022-12-07T01:58:25;15.57;;;10.68;;
57810;SDS011;43640;47.550;7.590;2022-12-07T02:00:27;14.77;;;11.23;;
57810;SDS011;43640;47.550;7.590;2022-12-07T02:02:35;16.13;;;11.68;;
57810;SDS011;43640;47.550;7.590;2022-12-07T02:04:38;18.75;;;11.75;;
57810;SDS011;43640;47.550;7.590;2022-12-07T02:06:40;15.52;;;10.52;;
57810;SDS011;43640;47.550;7.590;2022-12-07T02:08:42;17.83;;;11.30;;
57810;SDS011;43640;47.550;7.590;2022-12-07T02:10:44;16.42;;;10.65;;
57810;SDS011;43640;47.550;7.590;2022-12-07T02:12:46;16.10;;;11.45;;
57810;SDS011;43640;47.550;7.590;2022-12-07T02:14:48;16.60;;;11.02;;
57810;SDS011;43640;47.550;7.590;2022-12-07T02:21:12;18.05;;;12.00;;
57810;SDS011;43640;47.550;7.590;2022-12-07T02:29:50;18.55;;;11.68;;
57810;SDS011;43640;47.550;7.590;2022-12-07T02:32:06;17.02;;;11.88;;
57810;SDS011;43640;47.550;7.590;2022-12-07T02:34:11;19.85;;;11.85;;
57810;SDS011;43640;47.550;7.590;2022-12-07T02:36:20;21.45;;;13.25;;
57810;SDS011;43640;47.550;7.590;2022-12-07T02:38:28;20.92;;;13.40;;
57810;SDS011;43640;47.550;7.590;2022-12-07T02:42:36;21.58;;;13.38;;
57810;SDS011;43640;47.550;7.590;2022-12-07T02:44:39;22.73;;;13.10;;
57810;SDS011;43640;47.550;7.590;2022-12-07T02:46:42;19.75;;;12.65;;
57810;SDS011;43640;47.550;7.590;2022-12-07T02:48:44;22.55;;;13.82;;
57810;SDS011;43640;47.550;7.590;2022-12-07T02:50:49;19.52;;;13.05;;
57810;SDS011;43640;47.550;7.590;2022-12-07T02:52:51;22.00;;;13.43;;
57810;SDS011;43640;47.550;7.590;2022-12-07T02:54:52;19.90;;;12.85;;
57810;SDS011;43640;47.550;7.590;2022-12-07T03:01:04;18.65;;;12.82;;
57810;SDS011;43640;47.550;7.590;2022-12-07T03:03:10;21.33;;;13.57;;
57810;SDS011;43640;47.550;7.590;2022-12-07T03:07:21;20.63;;;14.00;;
57810;SDS011;43640;47.550;7.590;2022-12-07T03:18:09;20.92;;;13.93;;
57810;SDS011;43640;47.550;7.590;2022-12-07T03:20:13;22.10;;;13.90;;
57810;SDS011;43640;47.550;7.590;2022-12-07T03:22:15;20.60;;;13.07;;
57810;SDS011;43640;47.550;7.590;2022-12-07T03:24:17;19.75;;;13.43;;
57810;SDS011;43640;47.550;7.590;2022-12-07T03:26:20;20.48;;;13.13;;
57810;SDS011;43640;47.550;7.590;2022-12-07T03:28:23;21.38;;;13.45;;
57810;SDS011;43640;47.550;7.590;2022-12-07T03:30:27;21.55;;;13.15;;
57810;SDS011;43640;47.550;7.590;2022-12-07T03:32:32;19.95;;;13.73;;
57810;SDS011;43640;47.550;7.590;2022-12-07T03:34:36;21.25;;;13.93;;
57810;SDS011;43640;47.550;7.590;2022-12-07T03:36:47;21.02;;;13.98;;
57810;SDS011;43640;47.550;7.590;2022-12-07T03:38:54;21.48;;;14.05;;
57810;SDS011;43640;47.550;7.590;2022-12-07T03:41:02;21.05;;;13.70;;
57810;SDS011;43640;47.550;7.590;2022-12-07T03:43:07;22.13;;;14.30;;
57810;SDS011;43640;47.550;7.590;2022-12-07T03:45:08;23.20;;;14.10;;
57810;SDS011;43640;47.550;7.590;2022-12-07T03:49:25;21.48;;;13.85;;
57810;SDS011;43640;47.550;7.590;2022-12-07T03:52:11;20.17;;;13.35;;
57810;SDS011;43640;47.550;7.590;2022-12-07T03:53:59;20.60;;;13.57;;
57810;SDS011;43640;47.550;7.590;2022-12-07T03:56:01;20.50;;;13.77;;
57810;SDS011;43640;47.550;7.590;2022-12-07T03:58:05;20.83;;;14.18;;
57810;SDS011;43640;47.550;7.590;2022-12-07T04:00:08;21.00;;;13.30;;
57810;SDS011;43640;47.550;7.590;2022-12-07T04:02:11;23.60;;;13.50;;
57810;SDS011;43640;47.550;7.590;2022-12-07T04:04:13;19.08;;;13.48;;
57810;SDS011;43640;47.550;7.590;2022-12-07T04:06:14;21.10;;;13.25;;
57810;SDS011;43640;47.550;7.590;2022-12-07T04:08:15;19.17;;;12.95;;
57810;SDS011;43640;47.550;7.590;2022-12-07T04:10:17;20.88;;;13.85;;
57810;SDS011;43640;47.550;7.590;2022-12-07T04:12:19;20.73;;;13.40;;
57810;SDS011;43640;47.550;7.590;2022-12-07T04:14:20;21.52;;;12.82;;
57810;SDS011;43640;47.550;7.590;2022-12-07T04:16:22;20.98;;;13.80;;
57810;SDS011;43640;47.550;7.590;2022-12-07T04:18:23;22.23;;;14.40;;
57810;SDS011;43640;47.550;7.590;2022-12-07T04:20:25;21.92;;;13.73;;
57810;SDS011;43640;47.550;7.590;2022-12-07T04:22:26;23.45;;;14.30;;
57810;SDS011;43640;47.550;7.590;2022-12-07T04:24:28;20.90;;;13.48;;
57810;SDS011;43640;47.550;7.590;2022-12-07T04:26:29;20.75;;;12.10;;
57810;SDS011;43640;47.550;7.590;2022-12-07T04:28:30;19.58;;;12.70;;
57810;SDS011;43640;47.550;7.590;2022-12-07T04:30:32;17.33;;;11.85;;
57810;SDS011;43640;47.550;7.590;2022-12-07T04:32:33;19.35;;;12.07;;
57810;SDS011;43640;47.550;7.590;2022-12-07T04:34:34;18.30;;;11.65;;
57810;SDS011;43640;47.550;7.590;2022-12-07T04:36:36;19.40;;;11.38;;
57810;SDS011;43640;47.550;7.590;2022-12-07T04:38:38;16.40;;;11.00;;
57810;SDS011;43640;47.550;7.590;2022-12-07T04:40:39;14.98;;;10.40;;
57810;SDS011;43640;47.550;7.590;2022-12-07T04:42:41;15.18;;;10.35;;
57810;SDS011;43640;47.550;7.590;2022-12-07T04:44:42;17.13;;;11.57;;
57810;SDS011;43640;47.550;7.590;2022-12-07T04:46:44;16.98;;;11.77;;
57810;SDS011;43640;47.550;7.590;2022-12-07T04:48:45;17.90;;;11.80;;
57810;SDS011;43640;47.550;7.590;2022-12-07T04:50:47;18.23;;;10.48;;
57810;SDS011;43640;47.550;7.590;2022-12-07T04:52:49;13.93;;;9.45;;
57810;SDS011;43640;47.550;7.590;2022-12-07T04:54:51;13.48;;;9.45;;
57810;SDS011;43640;47.550;7.590;2022-12-07T04:56:52;15.25;;;10.10;;
57810;SDS011;43640;47.550;7.590;2022-12-07T04:58:54;17.30;;;9.98;;
57810;SDS011;43640;47.550;7.590;2022-12-07T05:00:55;15.73;;;9.00;;
57810;SDS011;43640;47.550;7.590;2022-12-07T05:02:57;13.90;;;9.25;;
57810;SDS011;43640;47.550;7.590;2022-12-07T05:04:58;14.05;;;9.48;;
57810;SDS011;43640;47.550;7.590;2022-12-07T05:06:59;13.75;;;9.30;;
57810;SDS011;43640;47.550;7.590;2022-12-07T05:09:01;13.10;;;9.60;;
57810;SDS011;43640;47.550;7.590;2022-12-07T05:11:03;13.50;;;9.35;;
57810;SDS011;43640;47.550;7.590;2022-12-07T05:13:05;13.10;;;9.20;;
57810;SDS011;43640;47.550;7.590;2022-12-07T05:15:06;14.90;;;9.48;;
57810;SDS011;43640;47.550;7.590;2022-12-07T05:17:08;14.55;;;9.50;;
57810;SDS011;43640;47.550;7.590;2022-12-07T05:19:09;13.82;;;8.95;;
57810;SDS011;43640;47.550;7.590;2022-12-07T05:21:11;14.73;;;9.32;;
57810;SDS011;43640;47.550;7.590;2022-12-07T05:23:12;13.25;;;9.23;;
57810;SDS011;43640;47.550;7.590;2022-12-07T05:25:14;13.05;;;9.30;;
57810;SDS011;43640;47.550;7.590;2022-12-07T05:27:15;13.35;;;9.38;;
57810;SDS011;43640;47.550;7.590;2022-12-07T05:29:16;14.48;;;9.80;;
57810;SDS011;43640;47.550;7.590;2022-12-07T05:31:18;13.05;;;9.20;;
57810;SDS011;43640;47.550;7.590;2022-12-07T05:33:20;13.73;;;9.25;;
57810;SDS011;43640;47.550;7.590;2022-12-07T05:35:21;13.05;;;9.38;;
57810;SDS011;43640;47.550;7.590;2022-12-07T05:37:22;14.48;;;9.18;;
57810;SDS011;43640;47.550;7.590;2022-12-07T05:39:24;15.18;;;9.75;;
57810;SDS011;43640;47.550;7.590;2022-12-07T05:41:25;13.05;;;9.20;;
57810;SDS011;43640;47.550;7.590;2022-12-07T05:43:45;15.30;;;9.55;;
57810;SDS011;43640;47.550;7.590;2022-12-07T05:45:46;14.70;;;9.45;;
57810;SDS011;43640;47.550;7.590;2022-12-07T05:47:48;14.80;;;9.98;;
57810;SDS011;43640;47.550;7.590;2022-12-07T05:49:49;15.55;;;9.15;;
57810;SDS011;43640;47.550;7.590;2022-12-07T05:51:51;14.18;;;9.35;;
57810;SDS011;43640;47.550;7.590;2022-12-07T05:53:52;15.02;;;9.43;;
57810;SDS011;43640;47.550;7.590;2022-12-07T05:55:53;14.07;;;9.35;;
57810;SDS011;43640;47.550;7.590;2022-12-07T05:57:55;14.88;;;10.02;;
57810;SDS011;43640;47.550;7.590;2022-12-07T06:00:15;14.60;;;9.35;;
57810;SDS011;43640;47.550;7.590;2022-12-07T06:02:16;15.88;;;9.60;;
57810;SDS011;43640;47.550;7.590;2022-12-07T06:04:19;14.32;;;9.35;;
57810;SDS011;43640;47.550;7.590;2022-12-07T06:06:20;13.90;;;9.32;;
57810;SDS011;43640;47.550;7.590;2022-12-07T06:08:22;13.35;;;8.85;;
57810;SDS011;43640;47.550;7.590;2022-12-07T06:10:23;13.63;;;8.50;;
57810;SDS011;43640;47.550;7.590;2022-12-07T06:12:24;14.15;;;8.85;;
57810;SDS011;43640;47.550;7.590;2022-12-07T06:14:35;13.27;;;8.68;;
57810;SDS011;43640;47.550;7.590;2022-12-07T06:16:37;13.18;;;9.00;;
57810;SDS011;43640;47.550;7.590;2022-12-07T06:18:38;14.82;;;9.20;;
57810;SDS011;43640;47.550;7.590;2022-12-07T06:20:39;15.30;;;9.10;;
57810;SDS011;43640;47.550;7.590;2022-12-07T06:22:41;13.43;;;8.45;;
57810;SDS011;43640;47.550;7.590;2022-12-07T06:24:42;12.23;;;8.30;;
57810;SDS011;43640;47.550;7.590;2022-12-07T06:26:44;12.77;;;8.75;;
57810;SDS011;43640;47.550;7.590;2022-12-07T06:28:45;14.75;;;9.52;;
57810;SDS011;43640;47.550;7.590;2022-12-07T06:30:46;15.25;;;9.27;;
57810;SDS011;43640;47.550;7.590;2022-12-07T06:32:48;12.50;;;8.82;;
57810;SDS011;43640;47.550;7.590;2022-12-07T06:34:49;12.88;;;8.80;;
57810;SDS011;43640;47.550;7.590;2022-12-07T06:36:51;14.48;;;9.18;;
57810;SDS011;43640;47.550;7.590;2022-12-07T06:38:54;15.80;;;9.25;;
57810;SDS011;43640;47.550;7.590;2022-12-07T06:40:56;13.35;;;8.70;;
57810;SDS011;43640;47.550;7.590;2022-12-07T06:42:57;16.08;;;8.77;;
57810;SDS011;43640;47.550;7.590;2022-12-07T06:44:59;14.82;;;9.20;;
57810;SDS011;43640;47.550;7.590;2022-12-07T06:47:00;14.32;;;8.70;;
57810;SDS011;43640;47.550;7.590;2022-12-07T06:49:21;13.15;;;8.68;;
57810;SDS011;43640;47.550;7.590;2022-12-07T06:51:23;15.95;;;9.45;;
57810;SDS011;43640;47.550;7.590;2022-12-07T06:53:24;12.73;;;8.77;;
57810;SDS011;43640;47.550;7.590;2022-12-07T06:55:26;14.90;;;8.73;;
57810;SDS011;43640;47.550;7.590;2022-12-07T06:57:27;12.68;;;8.68;;
57810;SDS011;43640;47.550;7.590;2022-12-07T06:59:28;13.85;;;8.48;;
57810;SDS011;43640;47.550;7.590;2022-12-07T07:01:30;14.38;;;8.75;;
57810;SDS011;43640;47.550;7.590;2022-12-07T07:03:31;14.05;;;8.80;;
57810;SDS011;43640;47.550;7.590;2022-12-07T07:05:33;14.80;;;8.95;;
57810;SDS011;43640;47.550;7.590;2022-12-07T07:07:34;16.45;;;9.02;;
57810;SDS011;43640;47.550;7.590;2022-12-07T07:09:55;14.70;;;9.43;;
57810;SDS011;43640;47.550;7.590;2022-12-07T07:11:57;13.77;;;8.88;;
57810;SDS011;43640;47.550;7.590;2022-12-07T07:13:58;13.77;;;8.82;;
57810;SDS011;43640;47.550;7.590;2022-12-07T07:16:03;11.70;;;8.15;;
57810;SDS011;43640;47.550;7.590;2022-12-07T07:18:04;14.57;;;9.23;;
57810;SDS011;43640;47.550;7.590;2022-12-07T07:20:08;15.88;;;9.30;;
57810;SDS011;43640;47.550;7.590;2022-12-07T07:22:09;13.00;;;8.63;;
57810;SDS011;43640;47.550;7.590;2022-12-07T07:24:11;13.55;;;8.57;;
57810;SDS011;43640;47.550;7.590;2022-12-07T07:26:12;15.13;;;9.43;;
57810;SDS011;43640;47.550;7.590;2022-12-07T07:28:20;15.07;;;9.88;;
57810;SDS011;43640;47.550;7.590;2022-12-07T07:30:21;14.07;;;8.80;;
57810;SDS011;43640;47.550;7.590;2022-12-07T07:32:23;12.95;;;8.68;;
57810;SDS011;43640;47.550;7.590;2022-12-07T07:34:24;13.93;;;8.93;;
57810;SDS011;43640;47.550;7.590;2022-12-07T07:36:25;12.80;;;9.10;;
57810;SDS011;43640;47.550;7.590;2022-12-07T07:38:27;14.75;;;8.70;;
57810;SDS011;43640;47.550;7.590;2022-12-07T07:40:28;14.52;;;9.63;;
57810;SDS011;43640;47.550;7.590;2022-12-07T07:42:30;13.00;;;8.82;;
57810;SDS011;43640;47.550;7.590;2022-12-07T07:44:31;12.77;;;8.35;;
57810;SDS011;43640;47.550;7.590;2022-12-07T07:46:35;16.65;;;11.40;;
57810;SDS011;43640;47.550;7.590;2022-12-07T07:48:37;15.20;;;9.32;;
57810;SDS011;43640;47.550;7.590;2022-12-07T07:50:38;15.70;;;8.90;;
57810;SDS011;43640;47.550;7.590;2022-12-07T07:52:40;16.55;;;9.77;;
57810;SDS011;43640;47.550;7.590;2022-12-07T07:54:41;14.88;;;8.95;;
57810;SDS011;43640;47.550;7.590;2022-12-07T07:56:42;12.88;;;8.82;;
57810;SDS011;43640;47.550;7.590;2022-12-07T07:58:44;14.18;;;8.90;;
57810;SDS011;43640;47.550;7.590;2022-12-07T08:00:45;12.00;;;8.52;;
57810;SDS011;43640;47.550;7.590;2022-12-07T08:02:47;13.88;;;8.77;;
57810;SDS011;43640;47.550;7.590;2022-12-07T08:04:48;13.70;;;8.45;;
57810;SDS011;43640;47.550;7.590;2022-12-07T08:06:49;18.48;;;12.02;;
57810;SDS011;43640;47.550;7.590;2022-12-07T08:08:51;20.15;;;12.02;;
57810;SDS011;43640;47.550;7.590;2022-12-07T08:10:52;18.42;;;10.85;;
57810;SDS011;43640;47.550;7.590;2022-12-07T08:12:54;15.40;;;9.13;;
57810;SDS011;43640;47.550;7.590;2022-12-07T08:15:14;12.23;;;8.40;;
57810;SDS011;43640;47.550;7.590;2022-12-07T08:17:16;12.10;;;8.65;;
57810;SDS011;43640;47.550;7.590;2022-12-07T08:19:17;14.75;;;8.63;;
57810;SDS011;43640;47.550;7.590;2022-12-07T08:21:18;14.70;;;8.90;;
57810;SDS011;43640;47.550;7.590;2022-12-07T08:23:20;14.77;;;8.25;;
57810;SDS011;43640;47.550;7.590;2022-12-07T08:25:31;40.13;;;25.88;;
57810;SDS011;43640;47.550;7.590;2022-12-07T08:27:33;16.20;;;10.55;;
57810;SDS011;43640;47.550;7.590;2022-12-07T08:29:34;13.95;;;8.98;;
57810;SDS011;43640;47.550;7.590;2022-12-07T08:31:38;12.85;;;8.43;;
57810;SDS011;43640;47.550;7.590;2022-12-07T08:33:40;13.93;;;8.57;;
57810;SDS011;43640;47.550;7.590;2022-12-07T08:35:41;13.57;;;8.73;;
57810;SDS011;43640;47.550;7.590;2022-12-07T08:37:43;18.63;;;9.82;;
57810;SDS011;43640;47.550;7.590;2022-12-07T08:39:44;14.13;;;9.88;;
57810;SDS011;43640;47.550;7.590;2022-12-07T08:41:45;16.60;;;9.60;;
57810;SDS011;43640;47.550;7.590;2022-12-07T08:43:47;15.50;;;10.07;;
57810;SDS011;43640;47.550;7.590;2022-12-07T08:45:49;18.67;;;10.60;;
57810;SDS011;43640;47.550;7.590;2022-12-07T08:47:56;19.98;;;11.77;;
57810;SDS011;43640;47.550;7.590;2022-12-07T08:49:58;16.17;;;10.65;;
57810;SDS011;43640;47.550;7.590;2022-12-07T08:52:05;22.50;;;11.95;;
57810;SDS011;43640;47.550;7.590;2022-12-07T08:54:07;19.05;;;12.27;;
57810;SDS011;43640;47.550;7.590;2022-12-07T08:56:10;19.52;;;11.93;;
57810;SDS011;43640;47.550;7.590;2022-12-07T08:58:11;20.40;;;12.10;;
57810;SDS011;43640;47.550;7.590;2022-12-07T09:00:13;20.95;;;12.38;;
57810;SDS011;43640;47.550;7.590;2022-12-07T09:02:14;19.63;;;12.85;;
57810;SDS011;43640;47.550;7.590;2022-12-07T09:04:16;23.55;;;12.65;;
57810;SDS011;43640;47.550;7.590;2022-12-07T09:06:17;19.20;;;11.93;;
57810;SDS011;43640;47.550;7.590;2022-12-07T09:08:19;20.30;;;12.80;;
57810;SDS011;43640;47.550;7.590;2022-12-07T09:10:20;22.33;;;13.85;;
57810;SDS011;43640;47.550;7.590;2022-12-07T09:12:22;21.83;;;13.38;;
57810;SDS011;43640;47.550;7.590;2022-12-07T09:14:23;21.85;;;13.73;;
57810;SDS011;43640;47.550;7.590;2022-12-07T09:16:25;24.50;;;14.80;;
57810;SDS011;43640;47.550;7.590;2022-12-07T09:18:26;27.48;;;16.85;;
57810;SDS011;43640;47.550;7.590;2022-12-07T09:20:27;23.67;;;15.43;;
57810;SDS011;43640;47.550;7.590;2022-12-07T09:22:29;25.95;;;15.82;;
57810;SDS011;43640;47.550;7.590;2022-12-07T09:24:31;24.95;;;15.35;;
57810;SDS011;43640;47.550;7.590;2022-12-07T09:26:32;24.45;;;16.23;;
57810;SDS011;43640;47.550;7.590;2022-12-07T09:28:34;28.42;;;17.13;;
57810;SDS011;43640;47.550;7.590;2022-12-07T09:30:35;29.75;;;17.92;;
57810;SDS011;43640;47.550;7.590;2022-12-07T09:32:57;28.55;;;17.23;;
57810;SDS011;43640;47.550;7.590;2022-12-07T09:34:59;30.00;;;18.48;;
57810;SDS011;43640;47.550;7.590;2022-12-07T09:37:01;27.25;;;18.45;;
57810;SDS011;43640;47.550;7.590;2022-12-07T09:39:04;25.95;;;16.55;;
57810;SDS011;43640;47.550;7.590;2022-12-07T09:41:06;23.27;;;15.27;;
57810;SDS011;43640;47.550;7.590;2022-12-07T09:43:12;24.63;;;15.95;;
57810;SDS011;43640;47.550;7.590;2022-12-07T09:45:15;24.30;;;15.88;;
57810;SDS011;43640;47.550;7.590;2022-12-07T09:47:17;24.67;;;15.65;;
57810;SDS011;43640;47.550;7.590;2022-12-07T09:49:20;22.08;;;15.45;;
57810;SDS011;43640;47.550;7.590;2022-12-07T09:51:22;24.75;;;14.82;;
57810;SDS011;43640;47.550;7.590;2022-12-07T09:53:30;23.00;;;15.15;;
57810;SDS011;43640;47.550;7.590;2022-12-07T09:55:33;23.95;;;15.95;;
57810;SDS011;43640;47.550;7.590;2022-12-07T09:57:34;23.70;;;14.88;;
57810;SDS011;43640;47.550;7.590;2022-12-07T09:59:38;22.45;;;15.18;;
57810;SDS011;43640;47.550;7.590;2022-12-07T10:01:39;22.65;;;14.70;;
57810;SDS011;43640;47.550;7.590;2022-12-07T10:06:01;23.40;;;15.45;;
57810;SDS011;43640;47.550;7.590;2022-12-07T10:08:03;25.73;;;16.02;;
57810;SDS011;43640;47.550;7.590;2022-12-07T10:10:06;25.98;;;15.63;;
57810;SDS011;43640;47.550;7.590;2022-12-07T10:12:13;25.48;;;16.55;;
57810;SDS011;43640;47.550;7.590;2022-12-07T10:14:15;25.48;;;16.00;;
57810;SDS011;43640;47.550;7.590;2022-12-07T10:18:31;24.75;;;16.95;;
57810;SDS011;43640;47.550;7.590;2022-12-07T10:20:32;33.05;;;21.23;;
57810;SDS011;43640;47.550;7.590;2022-12-07T10:22:33;26.98;;;16.42;;
57810;SDS011;43640;47.550;7.590;2022-12-07T10:24:35;22.35;;;14.20;;
57810;SDS011;43640;47.550;7.590;2022-12-07T10:26:40;24.15;;;14.82;;
57810;SDS011;43640;47.550;7.590;2022-12-07T10:28:42;22.17;;;14.07;;
57810;SDS011;43640;47.550;7.590;2022-12-07T10:31:00;20.10;;;10.20;;
57810;SDS011;43640;47.550;7.590;2022-12-07T10:33:03;22.83;;;11.90;;
57810;SDS011;43640;47.550;7.590;2022-12-07T10:37:24;18.77;;;8.80;;
57810;SDS011;43640;47.550;7.590;2022-12-07T10:39:29;20.52;;;11.00;;
57810;SDS011;43640;47.550;7.590;2022-12-07T10:41:30;18.42;;;10.60;;
57810;SDS011;43640;47.550;7.590;2022-12-07T10:43:32;17.52;;;9.93;;
57810;SDS011;43640;47.550;7.590;2022-12-07T10:45:34;18.52;;;9.50;;
57810;SDS011;43640;47.550;7.590;2022-12-07T10:48:09;18.88;;;9.93;;
57810;SDS011;43640;47.550;7.590;2022-12-07T10:56:47;15.75;;;9.70;;
57810;SDS011;43640;47.550;7.590;2022-12-07T11:03:22;16.20;;;9.48;;
57810;SDS011;43640;47.550;7.590;2022-12-07T11:05:37;18.05;;;10.55;;
57810;SDS011;43640;47.550;7.590;2022-12-07T11:10:13;16.65;;;10.70;;
57810;SDS011;43640;47.550;7.590;2022-12-07T11:30:42;18.60;;;11.90;;
57810;SDS011;43640;47.550;7.590;2022-12-07T11:32:53;16.85;;;10.65;;
57810;SDS011;43640;47.550;7.590;2022-12-07T11:37:07;15.95;;;7.95;;
57810;SDS011;43640;47.550;7.590;2022-12-07T11:39:22;17.33;;;8.95;;
57810;SDS011;43640;47.550;7.590;2022-12-07T11:41:27;14.75;;;8.10;;
57810;SDS011;43640;47.550;7.590;2022-12-07T11:43:31;17.02;;;8.15;;
57810;SDS011;43640;47.550;7.590;2022-12-07T11:45:34;14.77;;;7.88;;
57810;SDS011;43640;47.550;7.590;2022-12-07T11:47:43;14.85;;;9.90;;
57810;SDS011;43640;47.550;7.590;2022-12-07T11:51:51;17.25;;;9.75;;
57810;SDS011;43640;47.550;7.590;2022-12-07T11:53:57;15.95;;;9.63;;
57810;SDS011;43640;47.550;7.590;2022-12-07T11:56:06;13.25;;;8.23;;
57810;SDS011;43640;47.550;7.590;2022-12-07T12:00:22;14.55;;;8.57;;
57810;SDS011;43640;47.550;7.590;2022-12-07T12:02:28;15.93;;;8.48;;
57810;SDS011;43640;47.550;7.590;2022-12-07T12:06:44;13.90;;;9.18;;
57810;SDS011;43640;47.550;7.590;2022-12-07T12:24:36;15.80;;;9.80;;
57810;SDS011;43640;47.550;7.590;2022-12-07T12:26:41;15.73;;;9.88;;
57810;SDS011;43640;47.550;7.590;2022-12-07T12:29:02;15.05;;;9.57;;
57810;SDS011;43640;47.550;7.590;2022-12-07T12:33:13;15.45;;;9.80;;
57810;SDS011;43640;47.550;7.590;2022-12-07T12:35:29;14.75;;;9.43;;
57810;SDS011;43640;47.550;7.590;2022-12-07T12:39:36;13.77;;;9.27;;
57810;SDS011;43640;47.550;7.590;2022-12-07T12:43:40;14.88;;;10.05;;
57810;SDS011;43640;47.550;7.590;2022-12-07T12:45:41;17.55;;;9.88;;
57810;SDS011;43640;47.550;7.590;2022-12-07T12:47:52;15.88;;;9.38;;
57810;SDS011;43640;47.550;7.590;2022-12-07T12:54:03;14.95;;;9.32;;
57810;SDS011;43640;47.550;7.590;2022-12-07T12:56:10;16.58;;;9.55;;
57810;SDS011;43640;47.550;7.590;2022-12-07T13:00:21;15.70;;;10.25;;
57810;SDS011;43640;47.550;7.590;2022-12-07T13:02:26;12.02;;;8.07;;
57810;SDS011;43640;47.550;7.590;2022-12-07T13:04:34;13.55;;;9.05;;
57810;SDS011;43640;47.550;7.590;2022-12-07T13:06:38;13.93;;;8.65;;
57810;SDS011;43640;47.550;7.590;2022-12-07T13:08:41;13.95;;;9.02;;
57810;SDS011;43640;47.550;7.590;2022-12-07T13:10:44;15.27;;;9.20;;
57810;SDS011;43640;47.550;7.590;2022-12-07T13:12:54;14.60;;;9.98;;
57810;SDS011;43640;47.550;7.590;2022-12-07T13:16:57;16.63;;;10.75;;
57810;SDS011;43640;47.550;7.590;2022-12-07T13:18:59;14.45;;;10.02;;
57810;SDS011;43640;47.550;7.590;2022-12-07T13:23:01;14.23;;;10.00;;
57810;SDS011;43640;47.550;7.590;2022-12-07T13:25:07;15.15;;;10.10;;
57810;SDS011;43640;47.550;7.590;2022-12-07T13:27:10;16.55;;;10.52;;
57810;SDS011;43640;47.550;7.590;2022-12-07T13:29:13;17.52;;;11.70;;
57810;SDS011;43640;47.550;7.590;2022-12-07T13:31:32;16.90;;;10.30;;
57810;SDS011;43640;47.550;7.590;2022-12-07T13:33:34;16.85;;;10.63;;
57810;SDS011;43640;47.550;7.590;2022-12-07T13:35:37;14.98;;;9.45;;
57810;SDS011;43640;47.550;7.590;2022-12-07T13:37:38;14.70;;;9.55;;
57810;SDS011;43640;47.550;7.590;2022-12-07T13:41:54;16.02;;;10.20;;
57810;SDS011;43640;47.550;7.590;2022-12-07T13:44:13;16.80;;;9.90;;
57810;SDS011;43640;47.550;7.590;2022-12-07T13:46:15;16.52;;;11.38;;
57810;SDS011;43640;47.550;7.590;2022-12-07T13:48:24;16.80;;;10.50;;
57810;SDS011;43640;47.550;7.590;2022-12-07T13:50:30;22.37;;;14.63;;
57810;SDS011;43640;47.550;7.590;2022-12-07T13:52:32;16.40;;;9.95;;
57810;SDS011;43640;47.550;7.590;2022-12-07T13:54:33;17.63;;;11.20;;
57810;SDS011;43640;47.550;7.590;2022-12-07T13:58:46;15.13;;;9.82;;
57810;SDS011;43640;47.550;7.590;2022-12-07T14:00:48;14.10;;;10.05;;
57810;SDS011;43640;47.550;7.590;2022-12-07T14:05:07;15.63;;;9.68;;